Hecker, Illinois
Current Conditions -  °F | °C
As of 9:24 PM on Saturday 22 Nov 2014 (Local Time) from KBLV Reporting Station
Overcast Overcast  
Wind Chill: 52°   Ceiling: 7000
Heat Index: 52°   Visibility: 10mi
Dew Point: 52°   Wind: 3mph
Humidity: 100%   Direction: 110°ESE
Pressure: 29.92"   Gusts: NA
Location:  38.31°N, 89.99°W
Report Text: KBLV 230324Z AUTO 11003KT 10SM OVC070 11/11 A2992 RMK AO2
Loading
Personal Weather Stations






























Interactive Weather Map New forecast layout! Learn more

10-Day Weather Forecast

Advertisements
Track Severe Weather on mobile